Time;durP1;ratioP1;P1;durP2;ratioP2;P2;SDS_P1;SDS_P2;PMS_P1;PMS_P2;Temp;Humidity;BMP_temperature;BMP_pressure;BME280_temperature;BME280_humidity;BME280_pressure;Samples;Min_cycle;Max_cycle;Signal;HPM_P1;HPM_P2
2022/11/12 00:00:24;;;;;;;6.90;3.70;;;8.60;99.90;;;;;;5076107;28;20189;-79
2022/11/12 00:03:10;;;;;;;3.10;2.80;;;8.60;99.90;;;;;;5067034;28;20185;-79
2022/11/12 00:05:56;;;;;;;5.80;3.17;;;8.70;99.90;;;;;;5070393;28;20226;-78
2022/11/12 00:08:45;;;;;;;5.03;3.10;;;8.60;99.90;;;;;;5074690;28;20197;-79
2022/11/12 00:11:31;;;;;;;3.00;2.70;;;8.30;99.90;;;;;;5083279;28;20193;-78
2022/11/12 00:14:17;;;;;;;3.87;3.17;;;8.10;99.90;;;;;;5070371;28;20190;-78
2022/11/12 00:17:03;;;;;;;2.80;2.60;;;8.20;99.90;;;;;;5069900;28;20225;-78
2022/11/12 00:19:49;;;;;;;3.70;2.80;;;8.40;99.90;;;;;;5063903;28;20194;-79
2022/11/12 00:22:35;;;;;;;2.73;2.50;;;8.60;99.90;;;;;;5076731;28;20189;-78
2022/11/12 00:25:23;;;;;;;6.83;3.93;;;8.70;99.90;;;;;;5068533;28;20194;-78
2022/11/12 00:28:10;;;;;;;3.83;2.90;;;8.60;99.90;;;;;;5077186;28;20197;-79
2022/11/12 00:30:56;;;;;;;3.80;3.07;;;8.40;99.90;;;;;;5062998;28;20207;-79
2022/11/12 00:33:43;;;;;;;4.10;2.73;;;8.50;99.90;;;;;;5068345;28;20655;-79
2022/11/12 00:36:28;;;;;;;6.77;3.50;;;8.30;99.90;;;;;;5071684;28;20220;-79
2022/11/12 00:39:14;;;;;;;4.63;2.83;;;8.30;99.90;;;;;;5073838;28;20201;-76
2022/11/12 00:42:02;;;;;;;3.00;2.70;;;8.30;99.90;;;;;;5078331;28;20269;-76
2022/11/12 00:44:48;;;;;;;3.93;2.93;;;8.40;99.90;;;;;;5068950;28;20187;-76
2022/11/12 00:47:34;;;;;;;3.87;2.77;;;8.30;99.90;;;;;;5059406;28;20210;-76
2022/11/12 00:50:20;;;;;;;5.20;3.60;;;8.40;99.90;;;;;;5066481;28;20194;-76
2022/11/12 00:53:06;;;;;;;5.67;4.27;;;8.30;99.90;;;;;;5068648;28;20519;-76
2022/11/12 00:55:52;;;;;;;4.77;3.90;;;8.10;99.90;;;;;;5072215;28;20222;-77
2022/11/12 00:59:07;;;;;;;6.37;4.50;;;8.10;99.90;;;;;;5069222;28;20189;-76
2022/11/12 01:01:53;;;;;;;6.90;4.30;;;8.10;99.90;;;;;;5069883;28;20190;-76
2022/11/12 01:04:39;;;;;;;4.77;3.40;;;8.10;99.90;;;;;;5080412;28;20197;-76
2022/11/12 01:07:25;;;;;;;5.30;3.97;;;7.90;99.90;;;;;;5067294;28;20221;-76
2022/11/12 01:10:12;;;;;;;5.07;3.50;;;7.90;99.90;;;;;;5069090;28;20194;-76
2022/11/12 01:12:57;;;;;;;6.97;4.10;;;8.00;99.90;;;;;;5073868;28;20226;-76
2022/11/12 01:15:45;;;;;;;6.93;4.83;;;8.00;99.90;;;;;;5074318;28;20218;-76
2022/11/12 01:18:30;;;;;;;5.20;3.97;;;7.90;99.90;;;;;;5072641;28;20663;-76
2022/11/12 01:21:16;;;;;;;7.93;4.67;;;8.00;99.90;;;;;;5062077;28;20194;-77
2022/11/12 01:24:02;;;;;;;7.30;4.80;;;8.00;99.90;;;;;;5070972;28;20223;-76
2022/11/12 01:26:48;;;;;;;7.40;5.13;;;7.80;99.90;;;;;;5070459;28;20209;-76
2022/11/12 01:29:34;;;;;;;6.53;4.13;;;7.70;99.90;;;;;;5077353;28;20655;-76
2022/11/12 01:32:22;;;;;;;6.97;4.23;;;7.90;99.90;;;;;;5067223;28;20202;-76
2022/11/12 01:35:08;;;;;;;7.13;5.17;;;7.90;99.90;;;;;;5072413;28;20186;-76
2022/11/12 01:37:54;;;;;;;8.60;5.77;;;7.60;99.90;;;;;;5074672;28;20206;-77
2022/11/12 01:40:40;;;;;;;9.97;6.30;;;7.60;99.90;;;;;;5073674;28;20194;-76
2022/11/12 01:43:26;;;;;;;7.87;5.67;;;7.60;99.90;;;;;;5069592;28;20197;-76
2022/11/12 01:46:18;;;;;;;7.57;5.80;;;7.60;99.90;;;;;;5070128;28;20201;-75
2022/11/12 01:49:11;;;;;;;6.93;5.30;;;7.50;99.90;;;;;;5076501;28;20193;-76
2022/11/12 01:52:04;;;;;;;7.07;5.17;;;7.70;99.90;;;;;;5070443;28;20187;-76
2022/11/12 01:54:55;;;;;;;6.83;4.53;;;7.70;99.90;;;;;;5080542;28;20189;-76
2022/11/12 01:57:46;;;;;;;5.80;4.40;;;7.50;99.90;;;;;;5070985;28;20217;-76
2022/11/12 02:00:32;;;;;;;6.47;4.30;;;7.50;99.90;;;;;;5073934;28;20181;-76
2022/11/12 02:03:22;;;;;;;6.27;4.60;;;7.60;99.90;;;;;;5071316;28;20182;-76
2022/11/12 02:06:13;;;;;;;7.13;5.13;;;7.60;99.90;;;;;;5069856;28;20221;-76
2022/11/12 02:08:59;;;;;;;7.63;5.40;;;7.60;99.90;;;;;;5066581;28;20183;-76
2022/11/12 02:11:45;;;;;;;5.07;4.30;;;7.70;99.90;;;;;;5071687;28;20186;-76
2022/11/12 02:14:41;;;;;;;6.20;4.57;;;7.60;99.90;;;;;;5069538;28;20190;-76
2022/11/12 02:17:27;;;;;;;7.07;4.23;;;7.50;99.90;;;;;;5065675;28;20216;-76
2022/11/12 02:20:14;;;;;;;7.00;4.90;;;7.50;99.90;;;;;;5077475;28;20185;-76
2022/11/12 02:23:01;;;;;;;6.27;4.00;;;7.40;99.90;;;;;;5068621;28;20191;-76
2022/11/12 02:25:47;;;;;;;5.10;4.17;;;7.50;99.90;;;;;;5073160;28;20221;-75
2022/11/12 02:28:33;;;;;;;6.03;4.27;;;7.70;99.90;;;;;;5078588;28;20197;-78
2022/11/12 02:31:19;;;;;;;3.93;3.53;;;7.70;99.90;;;;;;5079231;28;20190;-76
2022/11/12 02:34:07;;;;;;;5.13;3.80;;;7.70;99.90;;;;;;5073438;28;20189;-76
2022/11/12 02:36:53;;;;;;;4.77;3.83;;;7.70;99.90;;;;;;5059450;28;20206;-76
2022/11/12 02:39:41;;;;;;;4.77;4.03;;;7.60;99.90;;;;;;5070843;28;20194;-76
2022/11/12 02:42:50;;;;;;;4.50;3.63;;;7.70;99.90;;;;;;5073052;28;20194;-76
2022/11/12 02:45:36;;;;;;;3.37;3.03;;;7.70;99.90;;;;;;5074649;28;20280;-76
2022/11/12 02:48:22;;;;;;;4.67;3.57;;;7.60;99.90;;;;;;5070178;28;20203;-76
2022/11/12 02:51:08;;;;;;;4.47;3.40;;;7.60;99.90;;;;;;5068826;28;20202;-76
2022/11/12 02:53:54;;;;;;;3.73;3.33;;;7.50;99.90;;;;;;5072580;28;20187;-76
2022/11/12 02:56:41;;;;;;;4.83;3.67;;;7.60;99.90;;;;;;5068878;28;20738;-76
2022/11/12 02:59:27;;;;;;;3.67;3.10;;;7.60;99.90;;;;;;5066993;28;20193;-76
2022/11/12 03:02:13;;;;;;;3.83;3.30;;;7.70;99.90;;;;;;5072406;28;20185;-76
2022/11/12 03:04:59;;;;;;;4.43;3.47;;;7.80;99.90;;;;;;5068797;28;20186;-76
2022/11/12 03:07:45;;;;;;;3.80;3.17;;;7.70;99.90;;;;;;5064535;28;20218;-76
2022/11/12 03:10:32;;;;;;;3.97;3.27;;;7.80;99.90;;;;;;5067777;28;20178;-76
2022/11/12 03:13:19;;;;;;;4.30;3.90;;;7.90;99.90;;;;;;5075485;28;20190;-76
2022/11/12 03:16:16;;;;;;;3.73;3.43;;;8.00;99.90;;;;;;5066124;28;20214;-77
2022/11/12 03:19:02;;;;;;;4.30;3.63;;;8.00;99.90;;;;;;5075349;28;20187;-76
2022/11/12 03:21:48;;;;;;;5.93;3.90;;;8.20;99.90;;;;;;5076770;28;20178;-76
2022/11/12 03:24:34;;;;;;;4.30;3.60;;;8.30;99.90;;;;;;5076344;28;20807;-76
2022/11/12 03:27:20;;;;;;;3.70;3.40;;;8.50;99.90;;;;;;5070426;28;20575;-76
2022/11/12 03:30:08;;;;;;;4.57;3.50;;;8.30;99.90;;;;;;5066903;28;20198;-76
2022/11/12 03:32:54;;;;;;;5.03;3.80;;;8.10;99.90;;;;;;5068610;28;20194;-76
2022/11/12 03:35:41;;;;;;;6.53;3.77;;;8.10;99.90;;;;;;5071507;28;20553;-76
2022/11/12 03:38:27;;;;;;;4.97;3.80;;;8.30;99.90;;;;;;5068530;28;20236;-77
2022/11/12 03:41:13;;;;;;;3.70;3.20;;;8.20;99.90;;;;;;5072448;28;20193;-76
2022/11/12 03:43:59;;;;;;;3.57;3.20;;;8.00;99.90;;;;;;5073422;28;20191;-76
2022/11/12 03:46:46;;;;;;;4.37;3.33;;;7.90;99.90;;;;;;5067720;28;20221;-76
2022/11/12 03:49:32;;;;;;;4.43;3.13;;;8.00;99.90;;;;;;5084047;28;20185;-76
2022/11/12 03:53:02;;;;;;;3.97;2.60;;;8.30;99.90;;;;;;5071347;28;20693;-76
2022/11/12 03:55:47;;;;;;;3.20;2.87;;;8.80;99.90;;;;;;5071254;28;20232;-76
2022/11/12 03:58:33;;;;;;;2.83;2.63;;;9.10;99.90;;;;;;5072918;28;20202;-76
2022/11/12 04:01:19;;;;;;;4.77;3.10;;;9.20;99.90;;;;;;5065434;28;20185;-76
2022/11/12 04:04:07;;;;;;;3.30;3.00;;;9.30;99.90;;;;;;5069064;28;20531;-76
2022/11/12 04:09:56;;;;;;;3.80;3.00;;;9.40;99.90;;;;;;5071969;28;20185;-76
2022/11/12 04:21:49;;;;;;;3.93;3.50;;;8.90;99.90;;;;;;5058757;28;20551;-77
2022/11/12 04:22:07;;;;;;;3.40;3.07;;;8.70;99.90;;;;;;5060806;28;20181;-78
2022/11/12 04:27:56;;;;;;;3.53;3.20;;;8.60;99.90;;;;;;5108924;28;20184;-75
2022/11/12 04:30:41;;;;;;;4.00;3.10;;;8.50;99.90;;;;;;5111701;27;20192;-75
2022/11/12 04:33:27;;;;;;;3.47;3.17;;;8.40;99.90;;;;;;5116535;27;20180;-74
2022/11/12 04:36:13;;;;;;;4.30;3.27;;;8.50;99.90;;;;;;5123006;27;20211;-74
2022/11/12 04:39:01;;;;;;;4.77;2.93;;;8.40;99.90;;;;;;5127969;27;20207;-74
2022/11/12 04:45:05;;;;;;;6.07;3.20;;;8.10;99.90;;;;;;5122494;28;20208;-73
2022/11/12 04:47:51;;;;;;;3.73;3.33;;;8.10;99.90;;;;;;5128915;27;20184;-76
2022/11/12 04:50:37;;;;;;;3.67;3.17;;;8.30;99.90;;;;;;5134276;27;20192;-75
2022/11/12 04:53:24;;;;;;;3.67;3.03;;;8.10;99.90;;;;;;5137923;27;20657;-74
2022/11/12 04:56:11;;;;;;;5.20;3.27;;;8.10;99.90;;;;;;5122672;27;20212;-74
2022/11/12 04:58:57;;;;;;;3.37;3.07;;;8.00;99.90;;;;;;5131597;27;20192;-74
2022/11/12 05:01:43;;;;;;;3.33;2.93;;;8.00;99.90;;;;;;5126180;27;20191;-73
2022/11/12 05:04:29;;;;;;;3.93;2.97;;;7.90;99.90;;;;;;5138168;27;20191;-74
2022/11/12 05:07:16;;;;;;;3.40;3.10;;;8.00;99.90;;;;;;5132631;27;20203;-74
2022/11/12 05:10:02;;;;;;;3.23;2.97;;;8.20;99.90;;;;;;5138180;27;20181;-76
2022/11/12 05:12:49;;;;;;;3.83;2.70;;;8.40;99.90;;;;;;5129915;27;20192;-74
2022/11/12 05:15:35;;;;;;;4.27;2.90;;;8.70;99.90;;;;;;5136293;27;20223;-74
2022/11/12 05:18:21;;;;;;;3.40;2.90;;;8.60;99.90;;;;;;5140216;27;20200;-76
2022/11/12 05:24:07;;;;;;;3.77;2.90;;;8.60;99.90;;;;;;5131009;27;20201;-74
2022/11/12 05:26:53;;;;;;;4.50;3.53;;;8.30;99.90;;;;;;5133636;27;20234;-74
2022/11/12 05:29:41;;;;;;;3.93;3.17;;;8.10;99.90;;;;;;5136387;27;20187;-74
2022/11/12 05:32:27;;;;;;;4.90;3.43;;;7.90;99.90;;;;;;5131659;27;20195;-73
2022/11/12 05:35:13;;;;;;;3.87;3.20;;;7.70;99.90;;;;;;5128064;27;20207;-74
2022/11/12 05:37:59;;;;;;;3.87;3.50;;;7.50;99.90;;;;;;5132135;27;20204;-73
2022/11/12 05:40:45;;;;;;;5.83;3.57;;;7.50;99.90;;;;;;5138113;27;20192;-74
2022/11/12 05:43:31;;;;;;;4.60;3.67;;;7.50;99.90;;;;;;5134250;27;20185;-74
2022/11/12 05:46:18;;;;;;;5.37;3.67;;;7.50;99.90;;;;;;5128124;27;20215;-73
2022/11/12 05:49:04;;;;;;;4.53;3.83;;;7.40;99.90;;;;;;5139693;27;20210;-75
2022/11/12 05:51:51;;;;;;;4.90;3.43;;;7.40;99.90;;;;;;5135222;27;20188;-75
2022/11/12 05:54:37;;;;;;;4.53;3.80;;;7.40;99.90;;;;;;5134436;27;20196;-73
2022/11/12 05:57:23;;;;;;;4.97;3.53;;;7.30;99.90;;;;;;5136901;27;20191;-74
2022/11/12 06:00:11;;;;;;;4.43;3.50;;;7.30;99.90;;;;;;5139258;27;20194;-74
2022/11/12 06:02:58;;;;;;;5.07;4.10;;;7.40;99.90;;;;;;5135942;27;20191;-73
2022/11/12 06:05:44;;;;;;;4.70;4.13;;;7.30;99.90;;;;;;5134077;27;20555;-75
2022/11/12 06:08:30;;;;;;;4.33;3.80;;;7.30;99.90;;;;;;5134286;27;20669;-74
2022/11/12 06:11:17;;;;;;;4.40;4.00;;;7.30;99.90;;;;;;5128564;27;20187;-74
2022/11/12 06:14:03;;;;;;;4.87;3.93;;;7.20;99.90;;;;;;5130730;27;20184;-74
2022/11/12 06:16:50;;;;;;;4.43;4.03;;;7.30;99.90;;;;;;5132751;27;20219;-74
2022/11/12 06:19:37;;;;;;;4.77;3.70;;;7.20;99.90;;;;;;5139685;27;20208;-74
2022/11/12 06:22:23;;;;;;;5.00;4.50;;;7.10;99.90;;;;;;5129913;27;20198;-73
2022/11/12 06:25:09;;;;;;;6.03;4.13;;;7.10;99.90;;;;;;5130179;27;20220;-73
2022/11/12 06:27:55;;;;;;;5.50;4.07;;;7.20;99.90;;;;;;5133359;27;20184;-74
2022/11/12 06:30:40;;;;;;;5.20;4.37;;;7.20;99.90;;;;;;5136647;27;20196;-74
2022/11/12 06:33:26;;;;;;;4.30;3.90;;;7.30;99.90;;;;;;5129872;27;20183;-76
2022/11/12 06:36:19;;;;;;;4.23;3.83;;;7.20;99.90;;;;;;5130608;27;20215;-76
2022/11/12 06:39:05;;;;;;;4.37;3.83;;;7.10;99.90;;;;;;5127245;27;20200;-77
2022/11/12 06:41:51;;;;;;;5.77;4.27;;;7.10;99.90;;;;;;5131359;27;20187;-76
2022/11/12 06:44:37;;;;;;;5.97;4.50;;;7.20;99.90;;;;;;5131648;27;20192;-76
2022/11/12 06:47:24;;;;;;;6.60;4.40;;;7.00;99.90;;;;;;5134425;27;20195;-76
2022/11/12 06:50:10;;;;;;;4.33;3.93;;;7.00;99.90;;;;;;5128352;27;20198;-76
2022/11/12 06:53:00;;;;;;;3.53;3.17;;;7.00;99.90;;;;;;5126721;27;20188;-77
2022/11/12 06:55:46;;;;;;;3.90;2.90;;;7.30;99.90;;;;;;5129183;27;20681;-77
2022/11/12 06:58:32;;;;;;;3.23;2.33;;;7.90;99.90;;;;;;5135059;27;20199;-76
2022/11/12 07:01:18;;;;;;;3.47;2.73;;;8.30;99.90;;;;;;5120780;27;20197;-77
2022/11/12 07:04:04;;;;;;;4.17;3.20;;;8.50;99.90;;;;;;5127631;27;20192;-77
2022/11/12 07:06:50;;;;;;;3.53;2.80;;;8.50;99.90;;;;;;5123839;27;20220;-77
2022/11/12 07:09:38;;;;;;;4.57;3.67;;;8.60;99.90;;;;;;5135252;27;20195;-77
2022/11/12 07:12:23;;;;;;;3.50;3.20;;;8.40;99.90;;;;;;5129792;27;20204;-77
2022/11/12 07:15:10;;;;;;;4.37;3.27;;;8.40;99.90;;;;;;5133996;27;20723;-77
2022/11/12 07:17:56;;;;;;;3.10;2.80;;;8.50;99.90;;;;;;5136347;27;20187;-77
2022/11/12 07:20:42;;;;;;;2.80;2.50;;;8.90;99.90;;;;;;5136141;27;20191;-77
2022/11/12 07:23:31;;;;;;;2.93;2.63;;;9.10;99.90;;;;;;5131418;27;20195;-77
2022/11/12 07:26:20;;;;;;;4.17;3.77;;;9.20;99.90;;;;;;5127310;27;20720;-77
2022/11/12 07:29:07;;;;;;;4.50;3.90;;;8.60;99.90;;;;;;5128688;27;20180;-77
2022/11/12 07:31:53;;;;;;;5.17;4.37;;;8.30;99.90;;;;;;5129309;27;20215;-77
2022/11/12 07:34:39;;;;;;;5.10;4.60;;;8.00;99.90;;;;;;5127875;27;20195;-77
2022/11/12 07:37:25;;;;;;;4.47;4.07;;;8.10;99.90;;;;;;5134155;27;20192;-79
2022/11/12 07:40:12;;;;;;;5.73;4.50;;;8.30;99.90;;;;;;5125581;27;20216;-77
2022/11/12 07:43:00;;;;;;;6.30;5.00;;;8.00;99.90;;;;;;5122543;27;20193;-78
2022/11/12 07:45:46;;;;;;;4.93;4.27;;;7.90;99.90;;;;;;5125617;27;20216;-76
2022/11/12 07:48:39;;;;;;;5.77;4.97;;;8.20;99.90;;;;;;5131431;27;20187;-77
2022/11/12 07:51:26;;;;;;;5.33;4.60;;;8.40;99.90;;;;;;5131404;27;20175;-77
2022/11/12 07:54:13;;;;;;;6.77;5.00;;;8.50;99.90;;;;;;5120496;27;20610;-77
2022/11/12 07:56:59;;;;;;;6.10;5.10;;;8.60;99.90;;;;;;5122567;27;20212;-77
2022/11/12 08:00:12;;;;;;;6.37;5.27;;;8.50;99.90;;;;;;5128527;27;20203;-77
2022/11/12 08:03:00;;;;;;;7.27;4.90;;;8.50;99.90;;;;;;5127681;27;20200;-79
2022/11/12 08:05:46;;;;;;;5.50;5.00;;;8.60;99.90;;;;;;5129901;27;20215;-80
2022/11/12 08:08:35;;;;;;;5.33;4.83;;;8.80;99.90;;;;;;5133486;27;20187;-78
2022/11/12 08:11:24;;;;;;;4.63;4.23;;;8.90;99.90;;;;;;5130523;27;20196;-77
2022/11/12 08:14:10;;;;;;;5.00;4.37;;;9.10;99.90;;;;;;5131229;27;20204;-77
2022/11/12 08:17:01;;;;;;;6.47;4.70;;;9.30;99.90;;;;;;5119092;27;20192;-77
2022/11/12 08:19:46;;;;;;;6.30;4.17;;;9.30;99.90;;;;;;5128008;27;20200;-77
2022/11/12 08:22:32;;;;;;;5.87;4.60;;;9.40;99.90;;;;;;5130325;27;20193;-77
2022/11/12 08:25:18;;;;;;;3.93;3.53;;;9.50;99.90;;;;;;5128962;27;20223;-77
2022/11/12 08:28:05;;;;;;;3.97;3.57;;;9.50;99.90;;;;;;5121078;27;20653;-77
2022/11/12 08:30:51;;;;;;;6.23;4.43;;;9.90;99.90;;;;;;5130535;27;20180;-77
2022/11/12 08:33:39;;;;;;;5.53;3.63;;;10.00;99.90;;;;;;5123098;27;20200;-77
2022/11/12 08:36:25;;;;;;;3.93;3.47;;;10.20;99.90;;;;;;5122274;27;20219;-77
2022/11/12 08:39:11;;;;;;;11.03;8.00;;;10.40;99.90;;;;;;5121772;27;20215;-77
2022/11/12 08:41:57;;;;;;;7.87;6.53;;;10.50;99.90;;;;;;5131677;27;20199;-77
2022/11/12 08:44:43;;;;;;;5.50;4.20;;;10.60;99.90;;;;;;5129458;27;20203;-77
2022/11/12 08:47:29;;;;;;;7.00;4.17;;;10.60;99.90;;;;;;5129684;27;20206;-77
2022/11/12 08:50:17;;;;;;;5.07;4.07;;;10.80;99.90;;;;;;5140362;27;20190;-77
2022/11/12 08:53:04;;;;;;;4.53;3.53;;;10.90;99.90;;;;;;5137699;27;20198;-77
2022/11/12 08:55:53;;;;;;;5.10;3.83;;;11.00;99.90;;;;;;5134134;27;20226;-77
2022/11/12 08:58:39;;;;;;;5.33;4.13;;;11.10;99.90;;;;;;5138020;27;20286;-77
2022/11/12 09:01:27;;;;;;;7.63;4.47;;;11.10;99.90;;;;;;5133756;27;20253;-77
2022/11/12 09:04:15;;;;;;;5.47;3.57;;;11.30;99.90;;;;;;5127643;27;20573;-78
2022/11/12 09:07:03;;;;;;;10.07;3.50;;;11.40;99.90;;;;;;5136410;27;20191;-77
2022/11/12 09:09:49;;;;;;;5.03;3.20;;;11.60;99.90;;;;;;5130772;27;20258;-77
2022/11/12 09:12:35;;;;;;;4.10;3.63;;;11.90;99.90;;;;;;5131315;27;20309;-76
2022/11/12 09:15:21;;;;;;;5.73;3.97;;;11.90;99.90;;;;;;5123377;27;20230;-77
2022/11/12 09:18:12;;;;;;;4.87;3.83;;;12.00;99.90;;;;;;5135458;27;20199;-77
2022/11/12 09:21:02;;;;;;;4.68;3.85;;;12.30;99.90;;;;;;5137145;27;20207;-77
2022/11/12 09:23:49;;;;;;;6.20;5.18;;;12.30;99.90;;;;;;5138103;27;20548;-78
2022/11/12 09:26:35;;;;;;;8.53;6.07;;;12.40;99.90;;;;;;5132535;27;20600;-79
2022/11/12 09:29:21;;;;;;;7.03;5.83;;;12.50;99.90;;;;;;5140670;27;20195;-77
2022/11/12 09:32:07;;;;;;;7.43;6.33;;;12.60;99.90;;;;;;5124850;27;20195;-78
2022/11/12 09:34:54;;;;;;;9.20;7.40;;;12.60;99.90;;;;;;5134478;27;20717;-78
2022/11/12 09:37:49;;;;;;;8.82;7.10;;;12.50;99.90;;;;;;5135140;27;20550;-77
2022/11/12 09:41:08;;;;;;;8.57;7.30;;;12.70;99.90;;;;;;5125519;27;20215;-77
2022/11/12 09:43:59;;;;;;;6.80;6.10;;;12.70;99.90;;;;;;5140159;27;20195;-77
2022/11/12 09:46:49;;;;;;;12.80;7.10;;;12.80;99.90;;;;;;5121298;27;20227;-77
2022/11/12 09:49:40;;;;;;;8.90;7.72;;;12.90;99.90;;;;;;5136350;27;20195;-77
2022/11/12 09:52:28;;;;;;;6.40;5.80;;;12.90;99.90;;;;;;5138688;27;20199;-78
2022/11/12 09:55:18;;;;;;;7.50;6.00;;;13.00;99.90;;;;;;5133196;27;20231;-77
2022/11/12 09:58:11;;;;;;;7.13;5.97;;;13.00;99.90;;;;;;5128285;27;20249;-77
2022/11/12 10:01:02;;;;;;;9.65;6.45;;;13.00;99.90;;;;;;5127002;27;20215;-77
2022/11/12 10:03:56;;;;;;;6.68;5.95;;;13.10;99.90;;;;;;5133908;27;20196;-76
2022/11/12 10:10:44;;;;;;;7.13;5.05;;;13.50;99.50;;;;;;5137523;27;20190;-77
2022/11/12 10:13:43;;;;;;;8.27;5.60;;;13.70;98.30;;;;;;5124019;27;20192;-77
2022/11/12 10:17:07;;;;;;;5.63;5.05;;;13.90;98.10;;;;;;5117870;27;20219;-77
2022/11/12 10:20:05;;;;;;;8.00;5.70;;;14.20;96.70;;;;;;5131708;27;20210;-77
2022/11/12 10:23:04;;;;;;;7.97;6.25;;;14.50;96.30;;;;;;5133289;27;20200;-77
2022/11/12 10:25:53;;;;;;;8.40;5.97;;;14.90;95.80;;;;;;5134681;27;20226;-77
2022/11/12 10:28:46;;;;;;;9.00;6.60;;;15.10;94.70;;;;;;5130734;27;20203;-77
2022/11/12 10:31:50;;;;;;;7.28;6.57;;;15.50;94.40;;;;;;5129669;27;20668;-77
2022/11/12 10:34:36;;;;;;;7.68;6.97;;;15.70;94.20;;;;;;5134631;27;20218;-77
2022/11/12 10:37:27;;;;;;;10.07;7.60;;;16.00;94.10;;;;;;5134542;27;20191;-77
2022/11/12 10:40:33;;;;;;;9.30;8.32;;;16.30;93.10;;;;;;5119844;27;20215;-77
2022/11/12 10:43:25;;;;;;;10.13;8.38;;;16.60;92.50;;;;;;5134316;27;20536;-77
2022/11/12 10:46:20;;;;;;;10.07;8.75;;;16.90;92.10;;;;;;5126993;27;20227;-78
2022/11/12 10:49:21;;;;;;;9.18;7.50;;;17.30;91.20;;;;;;5131578;27;20191;-78
2022/11/12 10:52:21;;;;;;;9.85;8.23;;;17.70;89.70;;;;;;5133277;27;20197;-78
2022/11/12 10:55:17;;;;;;;8.32;5.93;;;17.70;88.20;;;;;;5121762;27;20652;-77
2022/11/12 10:58:21;;;;;;;10.45;7.75;;;18.10;83.10;;;;;;5130381;27;20195;-78
2022/11/12 11:01:17;;;;;;;9.55;8.55;;;18.10;83.30;;;;;;5121662;27;20234;-78
2022/11/12 11:04:03;;;;;;;10.00;7.95;;;18.50;82.50;;;;;;5121755;27;20215;-78
2022/11/12 11:06:58;;;;;;;7.55;5.80;;;18.40;79.20;;;;;;5120431;27;20218;-78
2022/11/12 11:09:52;;;;;;;6.63;5.57;;;18.40;79.00;;;;;;5117773;27;21036;-78
2022/11/12 11:12:41;;;;;;;5.45;4.50;;;18.80;78.70;;;;;;5125082;27;20214;-78
2022/11/12 11:15:27;;;;;;;8.20;5.80;;;18.70;76.90;;;;;;5121007;27;20223;-79
2022/11/12 11:18:15;;;;;;;5.65;4.75;;;18.90;77.00;;;;;;5117538;27;20207;-78
2022/11/12 11:21:17;;;;;;;8.38;7.03;;;18.40;78.70;;;;;;5131667;27;20218;-78
2022/11/12 11:24:18;;;;;;;6.38;4.85;;;18.60;78.20;;;;;;5130236;27;20198;-77
2022/11/12 11:27:09;;;;;;;6.07;4.50;;;18.60;78.90;;;;;;5122723;27;20214;-77
2022/11/12 11:30:07;;;;;;;4.40;4.00;;;18.70;78.00;;;;;;5125413;27;20207;-78
2022/11/12 11:33:26;;;;;;;4.50;4.05;;;18.80;75.90;;;;;;5126254;27;20202;-78
2022/11/12 11:36:24;;;;;;;5.63;3.80;;;19.10;75.10;;;;;;5126708;27;20227;-77
2022/11/12 11:39:20;;;;;;;4.70;4.20;;;19.00;74.10;;;;;;5123832;27;20903;-80
2022/11/12 11:42:23;;;;;;;7.38;4.30;;;19.30;73.40;;;;;;5130218;27;20200;-80
2022/11/12 11:45:16;;;;;;;7.95;4.25;;;19.60;71.60;;;;;;5126565;27;20215;-79
2022/11/12 11:48:12;;;;;;;4.75;3.67;;;19.60;71.50;;;;;;5122451;27;20543;-78
2022/11/12 11:51:04;;;;;;;6.75;5.50;;;19.60;70.30;;;;;;5132933;27;20241;-78
2022/11/12 11:54:00;;;;;;;6.38;4.47;;;19.80;69.30;;;;;;5137445;27;20195;-78
2022/11/12 11:56:51;;;;;;;6.43;4.18;;;19.90;68.20;;;;;;5125492;27;20223;-77
2022/11/12 11:59:47;;;;;;;4.82;4.20;;;20.20;67.90;;;;;;5132629;27;20206;-77
2022/11/12 12:03:07;;;;;;;4.18;3.70;;;20.20;67.50;;;;;;5116595;27;20184;-77
2022/11/12 12:06:08;;;;;;;6.65;3.75;;;20.30;66.40;;;;;;5129581;27;20227;-77
2022/11/12 12:09:09;;;;;;;3.83;3.33;;;20.20;65.50;;;;;;5119565;27;20187;-77
2022/11/12 12:12:04;;;;;;;4.18;3.47;;;20.30;65.90;;;;;;5128919;27;20190;-78
2022/11/12 12:15:02;;;;;;;4.72;4.07;;;20.30;65.80;;;;;;5134565;27;20191;-78
2022/11/12 12:17:57;;;;;;;7.72;6.00;;;20.50;65.90;;;;;;5107846;22;20216;-80
2022/11/12 12:20:54;;;;;;;6.00;4.97;;;20.70;66.00;;;;;;5073179;28;20221;-81
2022/11/12 12:23:45;;;;;;;7.15;6.40;;;21.30;65.90;;;;;;5082303;28;20204;-80
2022/11/12 12:26:37;;;;;;;7.20;6.15;;;21.60;65.00;;;;;;5079980;28;20224;-80
2022/11/12 12:29:30;;;;;;;7.63;6.32;;;21.30;65.10;;;;;;5082112;28;20200;-81
2022/11/12 12:32:21;;;;;;;7.32;5.93;;;21.50;64.70;;;;;;5082877;28;20181;-81
2022/11/12 12:35:17;;;;;;;8.35;6.57;;;21.60;64.50;;;;;;5077729;28;20679;-81
2022/11/12 12:38:12;;;;;;;6.85;5.97;;;21.30;64.30;;;;;;5069454;28;20228;-80
2022/11/12 12:41:06;;;;;;;6.97;6.25;;;21.40;63.90;;;;;;5069621;28;20216;-81
2022/11/12 12:44:02;;;;;;;8.30;5.82;;;21.20;63.80;;;;;;5074059;28;20201;-81
2022/11/12 12:46:56;;;;;;;7.38;6.47;;;21.30;63.70;;;;;;5079210;28;20220;-81
2022/11/12 12:49:49;;;;;;;8.18;6.47;;;21.30;63.70;;;;;;5072743;28;20197;-81
2022/11/12 12:53:04;;;;;;;10.02;5.97;;;21.20;63.40;;;;;;5074257;28;20196;-80
2022/11/12 12:55:52;;;;;;;7.07;5.90;;;21.20;63.20;;;;;;5080306;28;20201;-81
2022/11/12 12:58:43;;;;;;;7.43;5.03;;;21.80;62.30;;;;;;5077366;28;20726;-80
2022/11/12 13:01:37;;;;;;;6.10;5.50;;;21.60;61.90;;;;;;5071318;28;20201;-80
2022/11/12 13:04:52;;;;;;;5.63;4.65;;;22.00;60.50;;;;;;5079973;28;20205;-81
2022/11/12 13:07:42;;;;;;;6.65;4.70;;;22.50;59.40;;;;;;5076815;28;20217;-81
2022/11/12 13:10:51;;;;;;;4.47;4.07;;;22.40;58.80;;;;;;5077893;28;20682;-81
2022/11/12 13:13:38;;;;;;;5.88;4.57;;;22.90;57.80;;;;;;5075659;28;20212;-81
2022/11/12 13:17:00;;;;;;;5.13;4.40;;;22.60;57.90;;;;;;5076918;28;20236;-80
2022/11/12 13:20:07;;;;;;;4.47;3.97;;;22.30;57.40;;;;;;5076262;28;20213;-81
2022/11/12 13:22:57;;;;;;;6.68;4.40;;;22.50;56.00;;;;;;5081494;28;20208;-81
2022/11/12 13:25:46;;;;;;;5.63;4.50;;;22.50;56.80;;;;;;5084564;28;20200;-80
2022/11/12 13:28:32;;;;;;;5.57;4.68;;;22.80;56.90;;;;;;5083106;28;20674;-79
2022/11/12 13:31:27;;;;;;;4.20;3.80;;;22.80;56.20;;;;;;5068847;28;20214;-78
2022/11/12 13:34:18;;;;;;;4.38;3.90;;;23.10;55.60;;;;;;5079087;28;20205;-78
2022/11/12 13:37:05;;;;;;;5.88;3.70;;;23.30;54.40;;;;;;5075045;28;20222;-79
2022/11/12 13:39:53;;;;;;;6.18;4.05;;;23.50;53.20;;;;;;5077861;28;20204;-79
2022/11/12 13:42:48;;;;;;;4.93;3.80;;;23.40;53.40;;;;;;5080428;28;20986;-79
2022/11/12 13:45:41;;;;;;;3.90;3.50;;;23.60;53.10;;;;;;5078982;28;20201;-79
2022/11/12 13:48:29;;;;;;;6.93;4.15;;;23.50;52.20;;;;;;5083718;28;20197;-79
2022/11/12 13:51:19;;;;;;;3.90;3.50;;;23.40;51.80;;;;;;5079879;28;20216;-79
2022/11/12 13:54:28;;;;;;;4.88;3.85;;;23.70;51.90;;;;;;5079189;28;20212;-79
2022/11/12 13:57:31;;;;;;;7.80;4.55;;;23.80;50.80;;;;;;5079313;28;20217;-79
2022/11/12 14:00:24;;;;;;;5.43;3.75;;;23.30;51.50;;;;;;5082761;28;20205;-79
2022/11/12 14:03:17;;;;;;;5.05;4.15;;;23.80;51.40;;;;;;5069810;28;20216;-79
2022/11/12 14:06:07;;;;;;;4.68;4.07;;;23.90;50.70;;;;;;5072743;28;20578;-79
2022/11/12 14:09:17;;;;;;;6.38;4.63;;;24.40;50.10;;;;;;5063269;28;20193;-80
2022/11/12 14:12:36;;;;;;;5.40;4.80;;;24.20;49.70;;;;;;5077686;28;20201;-79
2022/11/12 14:15:51;;;;;;;6.00;4.53;;;24.20;49.90;;;;;;5083199;28;20204;-78
2022/11/12 14:18:52;;;;;;;5.72;4.97;;;24.50;50.10;;;;;;5080143;28;20208;-79
2022/11/12 14:21:38;;;;;;;5.43;4.93;;;24.40;50.00;;;;;;5081912;28;20700;-80
2022/11/12 14:24:27;;;;;;;9.52;8.50;;;24.50;50.10;;;;;;5077478;28;20201;-79
2022/11/12 14:27:35;;;;;;;7.60;6.57;;;24.50;50.30;;;;;;5071466;28;20586;-79
2022/11/12 14:30:23;;;;;;;6.05;5.45;;;24.20;50.60;;;;;;5067070;28;20196;-77
2022/11/12 14:33:11;;;;;;;6.75;5.80;;;24.50;51.10;;;;;;5071124;28;20693;-77
2022/11/12 14:36:11;;;;;;;7.00;5.25;;;24.20;51.40;;;;;;5075133;28;20190;-77
2022/11/12 14:38:59;;;;;;;8.98;5.00;;;24.30;51.10;;;;;;5079946;28;20196;-77
2022/11/12 14:41:47;;;;;;;6.20;5.60;;;24.10;52.30;;;;;;5074294;28;20205;-78
2022/11/12 14:44:54;;;;;;;7.20;5.68;;;23.90;52.60;;;;;;5072545;28;20201;-77
2022/11/12 14:47:41;;;;;;;12.63;9.15;;;23.40;53.60;;;;;;5072404;28;20229;-77
2022/11/12 14:50:55;;;;;;;8.68;7.38;;;22.80;53.80;;;;;;5066985;28;20193;-78
2022/11/12 14:53:48;;;;;;;8.00;7.20;;;22.40;54.60;;;;;;5076359;28;20566;-78
2022/11/12 14:56:40;;;;;;;8.52;7.70;;;21.90;55.90;;;;;;5074065;28;20216;-78
2022/11/12 14:59:26;;;;;;;8.48;7.60;;;21.40;57.00;;;;;;5075125;28;20189;-77
2022/11/12 15:02:16;;;;;;;7.85;6.90;;;20.80;58.30;;;;;;5075960;28;20204;-79
2022/11/12 15:05:12;;;;;;;8.73;7.57;;;20.50;59.30;;;;;;5067464;28;20686;-79
2022/11/12 15:08:00;;;;;;;8.88;7.97;;;19.70;61.00;;;;;;5065501;28;20596;-79
2022/11/12 15:11:14;;;;;;;11.18;7.88;;;19.40;62.70;;;;;;5065752;28;20678;-78
2022/11/12 15:14:03;;;;;;;9.63;8.65;;;19.20;64.30;;;;;;5064841;28;20670;-79
2022/11/12 15:16:50;;;;;;;10.32;8.43;;;18.80;65.60;;;;;;5078641;28;20236;-79